Time;durP1;ratioP1;P1;durP2;ratioP2;P2;SDS_P1;SDS_P2;PMS_P1;PMS_P2;Temp;Humidity;BMP_temperature;BMP_pressure;BME280_temperature;BME280_humidity;BME280_pressure;Samples;Min_cycle;Max_cycle;Signal;HPM_P1;HPM_P2
2023/12/17 00:01:43;;;;;;;15.33;6.30;;;3.10;99.90;;;3.78;100.00;100374.91;5052496;28;20911;-81
2023/12/17 00:04:11;;;;;;;9.63;5.97;;;3.10;99.90;;;3.78;100.00;100383.50;5055190;28;20470;-81
2023/12/17 00:06:41;;;;;;;10.33;6.70;;;3.10;99.90;;;3.79;100.00;100382.56;5053965;28;20473;-82
2023/12/17 00:09:10;;;;;;;14.00;5.87;;;3.20;99.90;;;3.83;100.00;100381.47;5054970;28;20464;-81
2023/12/17 00:11:43;;;;;;;9.43;6.10;;;3.10;99.90;;;3.87;100.00;100377.78;5053269;28;20463;-81
2023/12/17 00:14:13;;;;;;;18.47;6.10;;;3.10;99.90;;;3.87;100.00;100374.38;5052627;28;20482;-81
2023/12/17 00:16:41;;;;;;;9.63;6.40;;;3.20;99.90;;;3.90;100.00;100381.97;5055808;28;20477;-81
2023/12/17 00:19:10;;;;;;;9.20;5.97;;;3.20;99.90;;;3.93;100.00;100380.03;5052969;28;20462;-81
2023/12/17 00:21:39;;;;;;;12.00;6.73;;;3.20;99.90;;;3.95;100.00;100374.78;5052633;28;20480;-83
2023/12/17 00:24:08;;;;;;;21.30;5.57;;;3.20;99.90;;;3.95;100.00;100362.69;5052780;28;20473;-81
2023/12/17 00:26:36;;;;;;;16.80;7.17;;;3.20;99.90;;;3.97;100.00;100360.81;5055545;28;20541;-81
2023/12/17 00:29:06;;;;;;;11.10;5.47;;;3.20;99.90;;;3.98;100.00;100346.97;5053282;28;20490;-81
2023/12/17 00:31:35;;;;;;;16.73;6.50;;;3.20;99.90;;;4.01;100.00;100346.78;5054239;28;20479;-81
2023/12/17 00:34:04;;;;;;;15.80;6.00;;;3.20;99.90;;;4.00;100.00;100345.09;5053391;28;21278;-81
2023/12/17 00:36:32;;;;;;;13.63;6.53;;;3.20;99.90;;;4.03;100.00;100346.69;5055455;28;20822;-81
2023/12/17 00:39:01;;;;;;;15.27;6.10;;;3.20;99.90;;;4.07;100.00;100348.16;5052830;28;20475;-81
2023/12/17 00:41:31;;;;;;;12.03;6.20;;;3.30;99.90;;;4.08;100.00;100336.91;5052896;28;20501;-81
2023/12/17 00:43:59;;;;;;;11.43;5.83;;;3.30;99.90;;;4.08;100.00;100329.13;5053891;28;20475;-81
2023/12/17 00:46:29;;;;;;;20.70;6.30;;;3.30;99.90;;;4.08;100.00;100336.91;5052614;28;20519;-81
2023/12/17 00:48:58;;;;;;;11.53;5.77;;;3.30;99.90;;;4.13;100.00;100328.88;5053087;28;20455;-81
2023/12/17 00:51:27;;;;;;;14.73;6.00;;;3.30;99.90;;;4.12;100.00;100330.63;5054288;28;20513;-81
2023/12/17 00:53:55;;;;;;;10.00;5.47;;;3.30;99.90;;;4.14;100.00;100331.34;5053185;28;20913;-81
2023/12/17 00:56:24;;;;;;;20.33;6.90;;;3.30;99.90;;;4.13;100.00;100327.09;5053717;28;20951;-81
2023/12/17 00:58:52;;;;;;;26.83;6.47;;;3.40;99.90;;;4.14;100.00;100336.53;5053610;28;20526;-81
2023/12/17 01:01:21;;;;;;;14.57;5.43;;;3.40;99.90;;;4.20;100.00;100331.00;5051712;28;20492;-81
2023/12/17 01:03:50;;;;;;;27.70;6.20;;;3.50;99.90;;;4.21;100.00;100332.66;5052119;28;20532;-81
2023/12/17 01:06:19;;;;;;;29.47;6.67;;;3.40;99.90;;;4.21;100.00;100324.06;5053564;28;21044;-81
2023/12/17 01:08:48;;;;;;;14.33;5.80;;;3.50;99.90;;;4.20;100.00;100325.81;5052820;28;20813;-81
2023/12/17 01:11:16;;;;;;;12.33;5.80;;;3.50;99.90;;;4.23;100.00;100330.84;5052684;28;20555;-81
2023/12/17 01:13:45;;;;;;;25.30;7.00;;;3.50;99.90;;;4.25;100.00;100341.94;5054641;28;20969;-81
2023/12/17 01:16:13;;;;;;;22.63;5.33;;;3.50;99.90;;;4.26;100.00;100346.19;5058948;28;20475;-81
2023/12/17 01:18:42;;;;;;;13.13;5.80;;;3.50;99.90;;;4.27;100.00;100341.84;5061176;28;20483;-81
2023/12/17 01:21:12;;;;;;;17.83;6.93;;;3.50;99.90;;;4.31;100.00;100341.56;5060695;28;22438;-81
2023/12/17 01:23:41;;;;;;;14.93;5.00;;;3.50;99.90;;;4.33;100.00;100341.47;5059939;28;20460;-81
2023/12/17 01:26:09;;;;;;;13.97;5.77;;;3.50;99.90;;;4.31;100.00;100345.91;5060876;28;20463;-81
2023/12/17 01:28:38;;;;;;;10.73;5.37;;;3.60;99.90;;;4.32;100.00;100340.63;5061203;28;20466;-81
2023/12/17 01:31:08;;;;;;;28.77;5.70;;;3.50;99.90;;;4.36;100.00;100346.47;5058885;28;20954;-81
2023/12/17 01:33:37;;;;;;;17.27;5.97;;;3.60;99.90;;;4.33;100.00;100344.91;5059009;28;20923;-81
2023/12/17 01:36:06;;;;;;;11.80;5.07;;;3.60;99.90;;;4.36;100.00;100356.84;5060246;28;21474;-81
2023/12/17 01:38:38;;;;;;;13.93;5.30;;;3.60;99.90;;;4.37;100.00;100348.94;5058831;28;20456;-81
2023/12/17 01:41:07;;;;;;;23.33;6.10;;;3.70;99.90;;;4.38;100.00;100355.81;5059326;28;20524;-81
2023/12/17 01:43:35;;;;;;;13.20;5.33;;;3.60;99.90;;;4.42;100.00;100357.31;5058603;28;20478;-81
2023/12/17 01:46:05;;;;;;;18.43;6.20;;;3.60;99.90;;;4.45;100.00;100345.91;5059904;28;20465;-81
2023/12/17 01:48:35;;;;;;;11.47;5.20;;;3.70;99.90;;;4.44;100.00;100339.91;5059741;28;20846;-81
2023/12/17 01:51:04;;;;;;;29.40;7.70;;;3.70;99.90;;;4.43;100.00;100334.81;5058819;28;20492;-81
2023/12/17 01:53:33;;;;;;;14.27;5.80;;;3.70;99.90;;;4.47;100.00;100341.50;5057050;28;20495;-80
2023/12/17 01:56:03;;;;;;;11.70;4.87;;;3.70;99.90;;;4.49;100.00;100334.44;5059499;28;20836;-81
2023/12/17 01:58:32;;;;;;;12.00;6.37;;;3.70;99.90;;;4.48;100.00;100328.44;5058302;28;20657;-81
2023/12/17 02:01:03;;;;;;;10.97;5.83;;;3.80;99.90;;;4.51;100.00;100328.25;5059602;28;20796;-80
2023/12/17 02:03:31;;;;;;;18.67;6.20;;;3.70;99.90;;;4.53;100.00;100333.34;5059687;28;20593;-81
2023/12/17 02:06:00;;;;;;;19.90;5.80;;;3.70;99.90;;;4.53;100.00;100326.41;5059577;28;20491;-81
2023/12/17 02:08:28;;;;;;;17.13;7.47;;;3.80;99.90;;;4.56;100.00;100327.97;5061270;28;20456;-81
2023/12/17 02:10:57;;;;;;;21.70;7.40;;;3.80;99.90;;;4.56;100.00;100331.41;5058312;28;20469;-81
2023/12/17 02:13:27;;;;;;;14.87;6.17;;;3.80;99.90;;;4.58;100.00;100315.78;5057302;28;20484;-81
2023/12/17 02:15:55;;;;;;;13.87;5.53;;;3.80;99.90;;;4.57;100.00;100322.72;5058696;28;20455;-81
2023/12/17 02:18:24;;;;;;;15.17;6.87;;;3.80;99.90;;;4.57;100.00;100320.13;5060130;28;20460;-81
2023/12/17 02:20:54;;;;;;;13.40;6.50;;;3.80;99.90;;;4.58;100.00;100320.97;5058802;28;20457;-81
2023/12/17 02:23:24;;;;;;;14.23;6.70;;;3.80;99.90;;;4.62;100.00;100316.44;5056235;28;20499;-80
2023/12/17 02:25:52;;;;;;;21.87;7.40;;;3.80;99.90;;;4.63;100.00;100321.50;5061257;28;20465;-81
2023/12/17 02:28:21;;;;;;;17.13;6.97;;;3.80;99.90;;;4.62;100.00;100319.81;5055847;28;20791;-81
2023/12/17 02:30:49;;;;;;;15.47;6.90;;;3.90;99.90;;;4.64;100.00;100317.16;5054113;28;20521;-80
2023/12/17 02:33:18;;;;;;;14.07;7.03;;;3.90;99.90;;;4.67;100.00;100329.91;5056261;28;20549;-81
2023/12/17 02:35:47;;;;;;;14.53;6.60;;;3.90;99.90;;;4.68;100.00;100323.81;5055259;28;21008;-81
2023/12/17 02:38:15;;;;;;;20.07;7.40;;;3.90;99.90;;;4.67;100.00;100329.91;5055849;28;20472;-82
2023/12/17 02:40:46;;;;;;;12.63;5.87;;;3.90;99.90;;;4.70;100.00;100324.53;5055007;28;20502;-80
2023/12/17 02:43:14;;;;;;;19.17;7.27;;;3.90;99.90;;;4.70;100.00;100324.53;5054916;28;20863;-81
2023/12/17 02:45:44;;;;;;;13.70;6.87;;;3.90;99.90;;;4.67;100.00;100324.75;5054210;28;20452;-81
2023/12/17 02:48:12;;;;;;;12.47;6.07;;;3.80;99.90;;;4.69;100.00;100328.91;5057344;28;20476;-81
2023/12/17 02:50:41;;;;;;;11.20;6.40;;;3.80;99.90;;;4.69;100.00;100326.31;5057291;28;21020;-81
2023/12/17 02:53:09;;;;;;;16.13;6.60;;;3.90;99.90;;;4.72;100.00;100322.72;5056376;28;20556;-81
2023/12/17 02:55:37;;;;;;;18.33;6.70;;;3.90;99.90;;;4.73;100.00;100314.00;5054729;28;20459;-81
2023/12/17 02:58:07;;;;;;;11.53;6.00;;;3.90;99.90;;;4.71;100.00;100315.84;5055576;28;20469;-81
2023/12/17 03:00:36;;;;;;;21.30;6.73;;;3.90;99.90;;;4.73;100.00;100314.81;5057007;28;20471;-82
2023/12/17 03:03:04;;;;;;;20.07;6.37;;;3.90;99.90;;;4.75;100.00;100314.75;5055824;28;21039;-81
2023/12/17 03:05:33;;;;;;;15.80;6.37;;;3.90;99.90;;;4.77;100.00;100307.69;5054196;28;20461;-81
2023/12/17 03:08:02;;;;;;;21.60;7.40;;;3.90;99.90;;;4.77;100.00;100299.91;5056222;28;20455;-81
2023/12/17 03:10:30;;;;;;;19.37;6.50;;;3.90;99.90;;;4.79;100.00;100303.28;5056530;28;21040;-81
2023/12/17 03:12:59;;;;;;;16.33;7.07;;;3.90;99.90;;;4.79;100.00;100298.09;5055785;28;20462;-81
2023/12/17 03:15:29;;;;;;;10.70;5.27;;;3.90;99.90;;;4.81;100.00;100284.09;5057161;28;20464;-81
2023/12/17 03:17:58;;;;;;;13.07;5.60;;;4.00;99.90;;;4.81;100.00;100284.09;5054336;28;20457;-81
2023/12/17 03:20:27;;;;;;;25.93;6.77;;;4.00;99.90;;;4.81;100.00;100283.25;5056193;28;20517;-81
2023/12/17 03:22:55;;;;;;;16.00;5.40;;;4.10;99.90;;;4.80;100.00;100285.03;5054639;28;20516;-81
2023/12/17 03:25:24;;;;;;;12.63;6.00;;;4.00;99.90;;;4.81;100.00;100280.66;5055492;28;20472;-81
2023/12/17 03:27:52;;;;;;;19.87;5.43;;;4.00;99.90;;;4.81;100.00;100276.31;5053703;28;20975;-81
2023/12/17 03:30:22;;;;;;;14.83;5.97;;;4.00;99.90;;;4.84;100.00;100285.66;5055026;28;20487;-81
2023/12/17 03:32:52;;;;;;;15.00;6.00;;;4.00;99.90;;;4.85;100.00;100287.34;5054759;28;20456;-82
2023/12/17 03:35:21;;;;;;;11.67;5.77;;;4.00;99.90;;;4.86;100.00;100276.03;5052196;28;20449;-81
2023/12/17 03:37:50;;;;;;;13.73;6.57;;;4.00;99.90;;;4.83;100.00;100271.88;5054373;28;20471;-81
2023/12/17 03:40:18;;;;;;;20.07;6.13;;;4.00;99.90;;;4.86;100.00;100276.03;5054797;28;21163;-81
2023/12/17 03:42:47;;;;;;;13.03;5.13;;;4.00;99.90;;;4.85;100.00;100266.59;5053925;28;20484;-81
2023/12/17 03:45:15;;;;;;;10.80;5.57;;;4.00;99.90;;;4.83;100.00;100266.69;5053137;28;21089;-81
2023/12/17 03:47:48;;;;;;;13.40;6.00;;;4.00;99.90;;;4.80;100.00;100268.63;5057819;28;20492;-81
2023/12/17 03:50:20;;;;;;;14.00;6.03;;;4.00;99.90;;;4.77;100.00;100264.47;5054272;28;20476;-81
2023/12/17 03:52:50;;;;;;;10.60;5.10;;;4.00;99.90;;;4.73;100.00;100256.97;5054724;28;20472;-81
2023/12/17 03:55:18;;;;;;;11.00;5.20;;;4.00;99.90;;;4.68;100.00;100248.69;5053246;28;20459;-81
2023/12/17 03:57:48;;;;;;;12.00;4.33;;;3.90;99.90;;;4.65;100.00;100248.88;5056344;28;21111;-81
2023/12/17 04:00:16;;;;;;;12.70;4.43;;;3.90;99.90;;;4.64;100.00;100248.03;5055582;28;20464;-81
2023/12/17 04:02:45;;;;;;;17.80;6.17;;;3.90;99.90;;;4.57;100.00;100242.41;5055998;28;20576;-81
2023/12/17 04:05:14;;;;;;;12.77;5.47;;;3.90;99.90;;;4.55;100.00;100254.59;5057064;28;20555;-81
2023/12/17 04:07:44;;;;;;;15.20;5.30;;;3.90;99.90;;;4.54;100.00;100254.72;5055267;28;20986;-81
2023/12/17 04:10:12;;;;;;;10.13;4.70;;;3.80;99.90;;;4.50;100.00;100251.47;5052328;28;20480;-81
2023/12/17 04:12:41;;;;;;;15.70;6.00;;;3.80;99.90;;;4.50;100.00;100238.53;5051830;28;20873;-81
2023/12/17 04:15:10;;;;;;;35.83;13.70;;;3.70;99.90;;;4.45;100.00;100248.31;5048432;28;20496;-81
2023/12/17 04:17:39;;;;;;;15.80;5.83;;;3.80;99.90;;;4.42;100.00;100238.16;5052399;28;21079;-81
2023/12/17 04:20:10;;;;;;;21.43;6.70;;;3.70;99.90;;;4.45;100.00;100235.38;5046042;28;20476;-81
2023/12/17 04:22:38;;;;;;;13.77;5.40;;;3.80;99.90;;;4.43;100.00;100234.66;5049935;28;20467;-81
2023/12/17 04:25:09;;;;;;;15.40;6.03;;;3.80;99.90;;;4.43;100.00;100231.22;5051213;28;20874;-78
2023/12/17 04:27:38;;;;;;;13.73;4.90;;;3.70;99.90;;;4.43;100.00;100228.63;5050889;28;20469;-78
2023/12/17 04:30:08;;;;;;;20.43;7.80;;;3.70;99.90;;;4.40;100.00;100229.66;5049416;28;20464;-79
2023/12/17 04:32:37;;;;;;;22.87;5.73;;;3.70;99.90;;;4.39;100.00;100228.00;5051975;28;20458;-78
2023/12/17 04:35:07;;;;;;;15.90;6.00;;;3.70;99.90;;;4.41;100.00;100225.28;5049842;28;20582;-77
2023/12/17 04:37:36;;;;;;;33.20;5.73;;;3.70;99.90;;;4.38;100.00;100233.25;5051136;28;20487;-78
2023/12/17 04:40:06;;;;;;;14.17;6.03;;;3.70;99.90;;;4.36;100.00;100233.38;5052397;28;21494;-78
2023/12/17 04:42:36;;;;;;;16.27;5.63;;;3.60;99.90;;;4.33;100.00;100240.47;5049983;28;20469;-78
2023/12/17 04:45:06;;;;;;;14.37;5.43;;;3.60;99.90;;;4.30;100.00;100233.75;5050967;28;20559;-77
2023/12/17 04:47:35;;;;;;;10.73;5.33;;;3.60;99.90;;;4.31;100.00;100245.75;5049915;28;20457;-78
2023/12/17 04:50:04;;;;;;;11.67;5.10;;;3.50;99.90;;;4.30;100.00;100240.69;5049121;28;20482;-78
2023/12/17 04:52:32;;;;;;;9.10;4.53;;;3.50;99.90;;;4.29;100.00;100250.19;5050240;28;20476;-78
2023/12/17 04:55:06;;;;;;;9.10;4.83;;;3.40;99.90;;;4.30;100.00;100249.28;5050151;28;20578;-77
2023/12/17 04:57:36;;;;;;;12.33;5.20;;;3.50;99.90;;;4.31;100.00;100250.91;5051750;28;20881;-78
2023/12/17 05:00:07;;;;;;;7.97;4.33;;;3.50;99.90;;;4.31;100.00;100250.91;5050310;28;20463;-78
2023/12/17 05:02:37;;;;;;;10.00;5.13;;;3.50;99.90;;;4.30;100.00;100257.06;5050537;28;20981;-78
2023/12/17 05:05:07;;;;;;;6.27;4.07;;;3.50;99.90;;;4.32;100.00;100257.78;5052019;28;20496;-78
2023/12/17 05:07:35;;;;;;;7.90;4.03;;;3.50;99.90;;;4.30;100.00;100263.97;5049131;28;20559;-77
2023/12/17 05:10:06;;;;;;;8.30;4.40;;;3.50;99.90;;;4.23;100.00;100260.94;5049464;28;20469;-77
2023/12/17 05:12:36;;;;;;;22.73;10.13;;;3.60;99.90;;;4.23;100.00;100268.69;5050124;28;21262;-79
2023/12/17 05:15:06;;;;;;;8.07;4.90;;;3.50;99.90;;;4.22;100.00;100261.84;5051175;28;20473;-79
2023/12/17 05:17:34;;;;;;;6.30;4.20;;;3.60;99.90;;;4.25;100.00;100266.00;5048875;28;20467;-78
2023/12/17 05:20:03;;;;;;;5.90;3.70;;;3.50;99.90;;;4.23;100.00;100262.69;5051440;28;20513;-77
2023/12/17 05:22:32;;;;;;;7.70;4.00;;;3.50;99.90;;;4.20;100.00;100273.22;5051476;28;20509;-78
2023/12/17 05:25:01;;;;;;;6.63;4.10;;;3.40;99.90;;;4.17;100.00;100281.16;5052541;28;20495;-78
2023/12/17 05:27:29;;;;;;;6.20;3.70;;;3.40;99.90;;;4.16;100.00;100277.75;5053896;28;20473;-79
2023/12/17 05:29:59;;;;;;;11.70;4.43;;;3.40;99.90;;;4.17;100.00;100275.97;5051757;28;21028;-78
2023/12/17 05:32:28;;;;;;;6.80;3.50;;;3.40;99.90;;;4.16;100.00;100275.16;5053770;28;20960;-79
2023/12/17 05:34:57;;;;;;;10.50;4.63;;;3.40;99.90;;;4.15;100.00;100276.09;5052459;28;20476;-79
2023/12/17 05:37:25;;;;;;;17.73;4.90;;;3.40;99.90;;;4.13;100.00;100274.50;5050413;28;20831;-79
2023/12/17 05:39:54;;;;;;;9.60;3.73;;;3.30;99.90;;;4.09;100.00;100280.78;5051834;28;21208;-78
2023/12/17 05:42:23;;;;;;;6.23;3.97;;;3.30;99.90;;;4.06;100.00;100276.63;5052305;28;20472;-78
2023/12/17 05:44:51;;;;;;;46.47;4.50;;;3.20;99.90;;;4.04;100.00;100275.88;5050103;28;20502;-77
2023/12/17 05:47:21;;;;;;;50.67;5.27;;;3.20;99.90;;;4.00;100.00;100272.63;5051722;28;20906;-80
2023/12/17 05:49:50;;;;;;;30.77;4.27;;;3.30;99.90;;;4.04;100.00;100271.53;5051336;28;20463;-78
2023/12/17 05:52:19;;;;;;;58.37;5.10;;;3.30;99.90;;;4.07;100.00;100268.75;5051518;28;20468;-78
2023/12/17 05:54:48;;;;;;;29.23;5.10;;;3.20;99.90;;;4.09;100.00;100268.69;5052042;28;20474;-77
2023/12/17 05:57:16;;;;;;;24.67;4.07;;;3.20;99.90;;;4.07;100.00;100275.69;5053127;28;21137;-77
2023/12/17 05:59:45;;;;;;;33.40;3.80;;;3.20;99.90;;;4.04;100.00;100270.69;5051446;28;20500;-78
2023/12/17 06:02:14;;;;;;;33.63;4.40;;;3.20;99.90;;;4.01;100.00;100278.66;5055587;28;20541;-77
2023/12/17 06:04:44;;;;;;;4.87;3.10;;;3.20;99.90;;;4.02;100.00;100267.38;5057204;28;20497;-78
2023/12/17 06:07:12;;;;;;;18.60;4.13;;;3.20;99.90;;;3.96;100.00;100268.56;5056075;28;20462;-78
2023/12/17 06:09:43;;;;;;;17.33;3.90;;;3.20;99.90;;;3.97;100.00;100265.06;5055896;28;20465;-78
2023/12/17 06:12:11;;;;;;;8.33;4.00;;;3.20;99.90;;;3.96;100.00;100265.13;5054327;28;20511;-77
2023/12/17 06:14:40;;;;;;;5.77;4.07;;;3.10;99.90;;;3.96;100.00;100254.78;5054605;28;20505;-78
2023/12/17 06:17:09;;;;;;;10.60;3.30;;;3.10;99.90;;;3.95;100.00;100259.16;5053830;28;20468;-78
2023/12/17 06:19:38;;;;;;;18.60;4.20;;;3.00;99.90;;;3.95;100.00;100245.38;5054189;28;20464;-78
2023/12/17 06:22:11;;;;;;;7.10;3.73;;;3.00;99.90;;;3.94;100.00;100251.47;5054339;28;21322;-78
2023/12/17 06:24:40;;;;;;;8.70;3.90;;;3.10;99.90;;;3.89;100.00;100245.72;5054754;28;20533;-79
2023/12/17 06:27:15;;;;;;;8.50;4.23;;;3.00;99.90;;;3.83;100.00;100249.50;5052934;28;20469;-78
2023/12/17 06:29:46;;;;;;;10.30;3.83;;;3.10;99.90;;;3.81;100.00;100250.53;5055394;28;20494;-78
2023/12/17 06:32:14;;;;;;;19.57;4.03;;;3.00;99.90;;;3.73;100.00;100252.72;5054021;28;20463;-78
2023/12/17 06:34:43;;;;;;;102.03;35.37;;;3.10;99.90;;;3.69;100.00;100257.25;5053687;28;21085;-78
2023/12/17 06:37:13;;;;;;;11.63;4.50;;;3.00;99.90;;;3.70;100.00;100253.75;5052495;28;20525;-78
2023/12/17 06:39:42;;;;;;;22.70;3.80;;;2.90;99.90;;;3.74;100.00;100254.41;5051184;28;20470;-78
2023/12/17 06:42:11;;;;;;;22.53;3.77;;;3.00;99.90;;;3.72;100.00;100259.66;5054756;28;20531;-78
2023/12/17 06:44:39;;;;;;;7.17;3.27;;;3.00;99.90;;;3.71;100.00;100257.16;5051897;28;20484;-78
2023/12/17 06:47:08;;;;;;;8.00;3.73;;;3.00;99.90;;;3.69;100.00;100261.56;5051584;28;20543;-78
2023/12/17 06:49:54;;;;;;;5.60;3.20;;;2.90;99.90;;;3.68;100.00;100254.75;5052497;28;20472;-78
2023/12/17 06:52:24;;;;;;;5.60;3.37;;;2.80;99.90;;;3.68;100.00;100257.34;5053793;28;20488;-78
2023/12/17 06:54:52;;;;;;;8.47;3.03;;;2.80;99.90;;;3.64;100.00;100255.84;5052157;28;20555;-78
2023/12/17 06:57:21;;;;;;;5.83;2.97;;;2.80;99.90;;;3.66;100.00;100261.75;5051644;28;20471;-78
2023/12/17 06:59:49;;;;;;;7.20;2.93;;;2.80;99.90;;;3.64;100.00;100254.09;5050411;28;20810;-78
2023/12/17 07:02:18;;;;;;;3.90;2.83;;;2.90;99.90;;;3.59;100.00;100255.28;5054363;28;20471;-80
2023/12/17 07:04:48;;;;;;;7.07;3.10;;;2.80;99.90;;;3.55;100.00;100255.44;5051403;28;20487;-79
2023/12/17 07:07:17;;;;;;;9.03;3.70;;;2.80;99.90;;;3.53;100.00;100257.31;5051741;28;20467;-79
2023/12/17 07:09:47;;;;;;;9.00;3.60;;;2.80;99.90;;;3.54;100.00;100258.94;5053625;28;20495;-79
2023/12/17 07:12:15;;;;;;;9.17;3.37;;;2.80;99.90;;;3.53;100.00;100254.72;5050265;28;20461;-80
2023/12/17 07:14:44;;;;;;;4.47;2.90;;;2.70;99.90;;;3.48;100.00;100253.31;5051021;28;20488;-79
2023/12/17 07:17:12;;;;;;;7.57;3.83;;;2.70;99.90;;;3.44;100.00;100252.66;5054753;28;21016;-79
2023/12/17 07:19:41;;;;;;;6.67;3.30;;;2.70;99.90;;;3.36;100.00;100254.00;5054110;28;20537;-78
2023/12/17 07:22:10;;;;;;;5.37;4.13;;;2.60;99.90;;;3.28;100.00;100257.03;5050162;28;20491;-79
2023/12/17 07:24:38;;;;;;;4.73;2.90;;;2.60;99.90;;;3.24;100.00;100254.69;5052373;28;20489;-79
2023/12/17 07:27:08;;;;;;;9.63;3.43;;;2.50;99.90;;;3.26;100.00;100256.28;5050823;28;20466;-78
2023/12/17 07:29:37;;;;;;;7.73;3.33;;;2.60;99.90;;;3.27;100.00;100254.50;5051324;28;20556;-79
2023/12/17 07:32:05;;;;;;;11.23;3.50;;;2.80;99.90;;;3.26;100.00;100251.13;5053089;28;20471;-79
2023/12/17 07:34:34;;;;;;;4.50;3.73;;;2.80;99.90;;;3.28;100.00;100256.19;5053677;28;20461;-79
2023/12/17 07:37:03;;;;;;;7.10;3.57;;;2.70;99.90;;;3.29;100.00;100258.69;5052722;28;20463;-79
2023/12/17 07:39:32;;;;;;;6.33;3.50;;;2.60;99.90;;;3.28;100.00;100257.03;5051838;28;20495;-79
2023/12/17 07:42:00;;;;;;;10.63;3.70;;;2.60;99.90;;;3.29;100.00;100258.69;5052670;28;20968;-79
2023/12/17 07:44:30;;;;;;;11.43;4.50;;;2.70;99.90;;;3.33;100.00;100265.34;5053552;28;20477;-79
2023/12/17 07:46:59;;;;;;;6.97;4.27;;;2.70;99.90;;;3.35;100.00;100266.09;5052757;28;20473;-79
2023/12/17 07:49:27;;;;;;;17.80;3.90;;;2.60;99.90;;;3.34;100.00;100272.19;5052976;28;20959;-79
2023/12/17 07:51:56;;;;;;;6.10;3.43;;;2.70;99.90;;;3.33;100.00;100270.50;5051850;28;20465;-78
2023/12/17 07:54:26;;;;;;;10.60;4.50;;;2.50;99.90;;;3.31;100.00;100271.53;5050301;28;20481;-79
2023/12/17 07:56:54;;;;;;;7.63;4.10;;;2.60;99.90;;;3.36;100.00;100267.78;5050004;28;20461;-79
2023/12/17 07:59:23;;;;;;;5.27;3.90;;;2.60;99.90;;;3.38;100.00;100265.94;5053375;28;21502;-79
2023/12/17 08:01:53;;;;;;;8.57;4.40;;;2.60;99.90;;;3.38;100.00;100268.50;5054032;28;21140;-80
2023/12/17 08:04:21;;;;;;;11.67;4.80;;;2.60;99.90;;;3.38;100.00;100263.34;5052743;28;20946;-79
2023/12/17 08:06:50;;;;;;;7.67;4.23;;;2.60;99.90;;;3.35;100.00;100268.69;5054577;28;20549;-79
2023/12/17 08:09:19;;;;;;;14.83;4.23;;;2.60;99.90;;;3.36;100.00;100269.53;5050649;28;20476;-76
2023/12/17 08:11:48;;;;;;;8.43;4.20;;;2.60;99.90;;;3.36;100.00;100264.34;5051753;28;21130;-79
2023/12/17 08:14:16;;;;;;;9.90;4.10;;;2.60;99.90;;;3.40;100.00;100261.50;5053185;28;20462;-80
2023/12/17 08:16:45;;;;;;;8.80;4.77;;;2.60;99.90;;;3.40;100.00;100265.84;5054929;28;20462;-79
2023/12/17 08:19:15;;;;;;;6.47;3.70;;;2.60;99.90;;;3.43;100.00;100270.84;5055825;28;20958;-79
2023/12/17 08:21:43;;;;;;;9.30;3.30;;;2.60;99.90;;;3.48;100.00;100272.25;5054850;28;20461;-79
2023/12/17 08:24:12;;;;;;;6.67;3.53;;;2.70;99.90;;;3.50;100.00;100278.19;5052946;28;20465;-79
2023/12/17 08:26:40;;;;;;;11.23;3.83;;;2.70;99.90;;;3.50;100.00;100274.75;5053893;28;20504;-80
2023/12/17 08:29:09;;;;;;;9.27;4.33;;;2.70;99.90;;;3.52;100.00;100271.16;5053050;28;21060;-79
2023/12/17 08:31:37;;;;;;;7.23;4.20;;;2.70;99.90;;;3.54;100.00;100274.47;5055293;28;21029;-80
2023/12/17 08:34:05;;;;;;;6.40;4.10;;;2.80;99.90;;;3.52;100.00;100273.75;5054262;28;20468;-79
2023/12/17 08:36:36;;;;;;;7.77;3.70;;;2.70;99.90;;;3.51;100.00;100264.31;5054446;28;20462;-79
2023/12/17 08:39:06;;;;;;;7.43;3.73;;;2.70;99.90;;;3.51;100.00;100274.66;5054016;28;20450;-79
2023/12/17 08:41:34;;;;;;;6.23;3.80;;;2.80;99.90;;;3.57;100.00;100275.22;5054113;28;20544;-79
2023/12/17 08:44:03;;;;;;;5.37;3.70;;;2.80;99.90;;;3.59;100.00;100275.97;5051756;28;20469;-79
2023/12/17 08:46:31;;;;;;;24.37;4.53;;;2.80;99.90;;;3.60;100.00;100278.47;5052515;28;20625;-79
2023/12/17 08:49:00;;;;;;;6.80;4.50;;;2.80;99.90;;;3.60;100.00;100280.22;5052625;28;20464;-79
2023/12/17 08:51:29;;;;;;;9.47;4.30;;;2.80;99.90;;;3.60;100.00;100281.06;5053627;28;20458;-79
2023/12/17 08:53:59;;;;;;;8.10;4.20;;;2.80;99.90;;;3.61;100.00;100281.91;5051467;28;20466;-78
2023/12/17 08:56:27;;;;;;;6.57;3.57;;;2.80;99.90;;;3.60;100.00;100281.06;5054195;28;20476;-78
2023/12/17 08:58:56;;;;;;;7.60;3.70;;;2.80;99.90;;;3.59;100.00;100286.31;5054124;28;20492;-78
2023/12/17 09:01:24;;;;;;;6.40;3.77;;;2.90;99.90;;;3.61;100.00;100285.28;5051696;28;20468;-80
2023/12/17 09:03:53;;;;;;;6.90;4.13;;;2.90;99.90;;;3.64;100.00;100286.91;5052378;28;20462;-80
2023/12/17 09:06:24;;;;;;;9.57;5.37;;;2.90;99.90;;;3.68;100.00;100285.81;5051793;28;20490;-80
2023/12/17 09:08:53;;;;;;;7.20;4.10;;;2.90;99.90;;;3.69;100.00;100282.28;5050488;28;20461;-80
2023/12/17 09:11:23;;;;;;;7.63;4.53;;;3.00;99.90;;;3.65;100.00;100280.78;5053976;28;20469;-81
2023/12/17 09:13:51;;;;;;;8.90;4.23;;;3.00;99.90;;;3.67;100.00;100284.97;5053099;28;20529;-80
2023/12/17 09:16:19;;;;;;;9.73;4.10;;;3.10;99.90;;;3.68;100.00;100285.81;5053109;28;20602;-80
2023/12/17 09:18:49;;;;;;;7.83;4.20;;;3.10;99.90;;;3.71;100.00;100285.63;5053713;28;20813;-80
2023/12/17 09:21:18;;;;;;;5.47;3.50;;;3.10;99.90;;;3.73;100.00;100288.94;5051591;28;20468;-81
2023/12/17 09:23:47;;;;;;;8.30;4.13;;;3.10;99.90;;;3.73;100.00;100289.78;5050222;28;20574;-81
2023/12/17 09:26:16;;;;;;;6.70;3.70;;;3.00;99.90;;;3.72;100.00;100297.63;5052148;28;20497;-80
2023/12/17 09:28:47;;;;;;;8.00;3.80;;;3.00;99.90;;;3.75;100.00;100297.47;5052496;28;20470;-81
2023/12/17 09:31:16;;;;;;;9.10;4.90;;;3.00;99.90;;;3.75;100.00;100297.47;5052088;28;20506;-81
2023/12/17 09:33:44;;;;;;;6.30;4.27;;;3.00;99.90;;;3.78;100.00;100290.34;5052524;28;20459;-80
2023/12/17 09:36:13;;;;;;;6.50;3.73;;;3.20;99.90;;;3.82;100.00;100294.41;5052408;28;20539;-80
2023/12/17 09:38:42;;;;;;;9.60;4.00;;;3.30;99.90;;;3.86;100.00;100290.72;5056580;28;20497;-78
2023/12/17 09:41:11;;;;;;;9.67;4.10;;;3.30;99.90;;;3.91;100.00;100287.88;5056762;28;21256;-80
2023/12/17 09:43:39;;;;;;;7.30;4.70;;;3.40;99.90;;;3.95;100.00;100279.03;5057064;28;20856;-80
2023/12/17 09:46:10;;;;;;;6.20;4.37;;;3.30;99.90;;;3.94;100.00;100277.34;5056112;28;20998;-80
2023/12/17 09:48:38;;;;;;;6.43;4.67;;;3.30;99.90;;;3.91;100.00;100272.34;5058010;28;21061;-80
2023/12/17 09:51:11;;;;;;;9.83;5.03;;;3.20;99.90;;;3.95;100.00;100273.84;5058791;28;20568;-80
2023/12/17 09:53:40;;;;;;;14.27;5.10;;;3.20;99.90;;;3.99;100.00;100272.75;5058179;28;20520;-80
2023/12/17 09:56:11;;;;;;;7.33;4.77;;;3.40;99.90;;;3.99;100.00;100265.78;5057021;28;20476;-80
2023/12/17 09:58:40;;;;;;;8.10;5.00;;;3.30;99.90;;;4.02;100.00;100263.03;5057578;28;20478;-80
2023/12/17 10:01:10;;;;;;;8.17;5.00;;;3.40;99.90;;;4.06;100.00;100271.47;5055552;28;20854;-80
2023/12/17 10:03:39;;;;;;;13.70;4.53;;;3.30;99.90;;;4.09;100.00;100260.91;5056466;28;20883;-80
2023/12/17 10:06:08;;;;;;;10.27;4.70;;;3.40;99.90;;;4.13;100.00;100261.56;5055892;28;20582;-80
2023/12/17 10:08:37;;;;;;;11.50;5.70;;;3.30;99.90;;;4.13;100.00;100262.38;5053405;28;20497;-77
2023/12/17 10:11:07;;;;;;;8.50;4.40;;;3.40;99.90;;;4.14;100.00;100250.28;5053982;28;20978;-78
2023/12/17 10:13:35;;;;;;;8.67;4.60;;;3.40;99.90;;;4.12;100.00;100265.91;5054340;28;20478;-78
2023/12/17 10:16:04;;;;;;;5.93;4.53;;;3.30;99.90;;;4.12;100.00;100245.19;5054991;28;20506;-79
2023/12/17 10:18:34;;;;;;;8.60;4.53;;;3.40;99.90;;;4.17;100.00;100243.16;5054862;28;20466;-79
2023/12/17 10:21:04;;;;;;;8.13;4.00;;;3.40;99.90;;;4.17;100.00;100245.75;5057840;28;20463;-79
2023/12/17 10:23:47;;;;;;;6.07;4.00;;;3.40;99.90;;;4.15;100.00;100239.84;5055375;28;20464;-79